Shadwell, Virginia
Current Conditions -  °F | °C
As of 5:53 PM on Thursday 27 Nov 2014 (Local Time) from KCHO Reporting Station
Overcast Overcast  
Wind Chill: 33°   Ceiling: 6000
Heat Index: 40°   Visibility: 10mi
Dew Point: 23°   Wind: 10mph
Humidity: 51%   Direction: 320°NW
Pressure: 30.13"   Gusts: NA
Location:  38.0053°N, 78.3345°W
Report Text: KCHO 272253Z 32009KT 10SM FEW048 OVC060 04/M05 A3013 RMK AO2 SLP207 T00441050
Loading
Personal Weather Stations






























Interactive Weather Map New forecast layout! Learn more

10-Day Weather Forecast

Advertisements
Track Severe Weather on mobile